Terminal Aerodrome Forecast
Issued by NWS Houston/Galveston, TX

Home | Current Version | Previous Version | Text Only | Print | Product List | Glossary On
Versions: 1 2 3 4 5 6 7 8 9 10 11 12 13 14 15 16 17 18 19 20 21 22 23 24 25 26 27 28 29 30 31 32 33 34 35 36 37 38 39 40 41 42 43 44 45 46 47 48 49 50
000
FTUS44 KHGX 200817 AAA
TAFGLS
TAF AMD
KGLS 200817Z 2008/2106 13014KT P6SM OVC011
      TEMPO 2010/2012 3SM -SHRA BR
     FM201200 15013KT 6SM SHRA VCTS SCT007 BKN015CB OVC025
      TEMPO 2013/2017 VRB30KT 2SM TSRA OVC007CB
     FM202000 05009KT 4SM -RA BR OVC020
     FM202300 06008KT P6SM -RA SCT020 BKN035
     FM210300 16004KT 4SM BR SCT015 BKN250=

USA.gov is the U.S. government's official web portal to all federal, state and local government web resources and services.